Duke Field AFS, FL

10:06 AM CST on February 07, 2016 (GMT -0600)
John King 2nd edition | | Change Station
CLOSE
Current Station
Personal Weather Station
Location: Crestview, FL
Elevation: 138 ft
Nearby Weather Stations

Elev 138 ft 30.72 °N, 86.55 °W | Updated 3 minutes ago

Clear
Clear
56.3 °F
Feels Like 56.3 °F
N
3.2
Wind Variable Wind from NW

Today
High -- | Low -- °F
--% Chance of Precip.
Yesterday
High -- | Low -- °F
Precip. -- in
Pressure 30.25 in
Visibility 10.0 miles
Clouds Clear
Dew Point 28 °F
Humidity 34%
Rainfall 0.00 in
Snow Depth Not available.
6:33 AM 5:27 PM
Waning Crescent, 1% visible
METAR KCEW 071553Z AUTO 36009G14KT 10SM CLR 12/M05 A3025 RMK AO2 SLP244 T01171050
Pressure 30.25 in
Visibility 10.0 miles
Clouds Clear
Dew Point 28 °F
Humidity 34%
Rainfall 0.00 in
Snow Depth Not available.
6:33 AM 5:27 PM
Waning Crescent, 1% visible
METAR KCEW 071553Z AUTO 36009G14KT 10SM CLR 12/M05 A3025 RMK AO2 SLP244 T01171050

10-Day Weather Forecast

Almanac

Astronomy

Feb. 07, 2016 Rise Set
Actual Time
Civil Twilight
Nautical Twilight
Astronomical Twilight
Moon
Length of Visible Light
Length of Day
Tomorrow will be .
, % of the Moon is Illuminated

Today's Extremes

State Highs State Lows

Community

WunderPhotos

Upload Photos

1,891,218 photos uploaded!

WunderBlog® & News

Nearby

Air Quality

  Air Quality AQ Index Pollutant
Not available.

Snow Depth

Station Depth Elevation

Earthquake Activity

City Distance Mag. Time & Date
Minimum magnitude displayed is 2.5.

Coastal Water Temperatures

Place Temperature

Stations

Nearby Weather Stations

Station Location Temp. Windchill Dew Point Humidity Wind Precip. Elev Updated Type
                   

Watches & Warnings

There are currently no watches in effect.